createdAt,value
2022-09-23T00:01:10.733Z,4.35
2022-09-23T00:03:41.892Z,4.43
2022-09-23T00:06:11.744Z,3.78
2022-09-23T00:08:39.540Z,3.95
2022-09-23T00:11:07.373Z,4.13
2022-09-23T00:13:35.015Z,3.67
2022-09-23T00:16:06.518Z,3.83
2022-09-23T00:18:33.613Z,3.85
2022-09-23T00:21:10.058Z,3.70
2022-09-23T00:23:38.082Z,3.75
2022-09-23T00:26:07.711Z,4.00
2022-09-23T00:28:35.205Z,4.30
2022-09-23T00:31:23.267Z,4.63
2022-09-23T00:33:57.974Z,4.50
2022-09-23T00:36:25.869Z,4.28
2022-09-23T00:38:53.806Z,3.97
2022-09-23T00:41:21.545Z,3.63
2022-09-23T00:43:54.439Z,4.10
2022-09-23T00:46:34.584Z,4.25
2022-09-23T00:49:13.918Z,4.18
2022-09-23T00:51:45.477Z,3.80
2022-09-23T00:54:12.223Z,3.93
2022-09-23T00:56:39.775Z,3.75
2022-09-23T00:59:09.714Z,5.03
2022-09-23T01:01:38.106Z,4.47
2022-09-23T01:04:06.461Z,4.93
2022-09-23T01:06:33.444Z,3.93
2022-09-23T01:09:00.097Z,3.95
2022-09-23T01:11:46.175Z,4.45
2022-09-23T01:14:50.877Z,3.63
2022-09-23T01:17:34.479Z,3.65
2022-09-23T01:20:04.541Z,4.43
2022-09-23T01:23:08.463Z,4.15
2022-09-23T01:26:09.215Z,4.32
2022-09-23T01:28:57.157Z,4.13
2022-09-23T01:31:43.908Z,3.60
2022-09-23T01:34:49.155Z,3.73
2022-09-23T01:37:26.485Z,3.60
2022-09-23T01:40:10.212Z,3.83
2022-09-23T01:43:15.654Z,3.70
2022-09-23T01:45:46.945Z,3.95
2022-09-23T01:48:29.026Z,3.63
2022-09-23T01:51:07.168Z,4.10
2022-09-23T01:54:15.985Z,3.67
2022-09-23T01:56:52.374Z,3.70
2022-09-23T01:59:29.093Z,4.47
2022-09-23T02:02:04.347Z,5.33
2022-09-23T02:04:39.541Z,5.00
2022-09-23T02:07:15.174Z,5.65
2022-09-23T02:09:46.572Z,4.53
2022-09-23T02:12:20.221Z,6.10
2022-09-23T02:14:58.409Z,5.23
2022-09-23T02:17:34.514Z,5.20
2022-09-23T02:20:05.949Z,4.80
2022-09-23T02:23:06.172Z,5.60
2022-09-23T02:25:54.292Z,5.35
2022-09-23T02:28:42.025Z,5.50
2022-09-23T02:31:16.356Z,3.85
2022-09-23T02:33:54.164Z,3.70
2022-09-23T02:36:36.477Z,3.65
2022-09-23T02:39:08.398Z,3.67
2022-09-23T02:41:46.247Z,3.90
2022-09-23T02:44:16.841Z,4.00
2022-09-23T02:46:44.452Z,5.40
2022-09-23T02:49:17.509Z,5.25
2022-09-23T02:51:44.772Z,5.63
2022-09-23T02:54:18.658Z,6.20
2022-09-23T02:56:45.689Z,6.43
2022-09-23T02:59:12.978Z,6.03
2022-09-23T03:01:58.391Z,5.32
2022-09-23T03:04:49.101Z,5.90
2022-09-23T03:07:33.345Z,5.77
2022-09-23T03:10:30.080Z,5.80
2022-09-23T03:13:01.264Z,6.38
2022-09-23T03:15:38.700Z,5.72
2022-09-23T03:18:20.564Z,5.75
2022-09-23T03:21:17.330Z,6.07
2022-09-23T03:23:45.420Z,5.50
2022-09-23T03:26:20.660Z,5.80
2022-09-23T03:28:50.353Z,5.18
2022-09-23T03:31:17.796Z,5.22
2022-09-23T03:33:52.065Z,4.97
2022-09-23T03:36:43.251Z,4.10
2022-09-23T03:39:14.729Z,4.50
2022-09-23T03:41:50.852Z,4.50
2022-09-23T03:44:19.631Z,3.90
2022-09-23T03:46:49.635Z,3.40
2022-09-23T03:49:27.287Z,3.30
2022-09-23T03:51:55.459Z,4.32
2022-09-23T03:54:22.258Z,4.72
2022-09-23T03:56:49.014Z,4.32
2022-09-23T03:59:16.701Z,5.87
2022-09-23T04:01:44.185Z,4.47
2022-09-23T04:04:10.886Z,4.90
2022-09-23T04:06:37.783Z,4.10
2022-09-23T04:09:04.577Z,4.13
2022-09-23T04:11:31.277Z,4.40
2022-09-23T04:13:58.444Z,5.25
2022-09-23T04:16:25.916Z,5.40
2022-09-23T04:18:52.780Z,5.13
2022-09-23T04:21:19.830Z,6.07
2022-09-23T04:23:46.797Z,5.90
2022-09-23T04:26:14.105Z,5.60
2022-09-23T04:28:41.033Z,5.55
2022-09-23T04:31:09.399Z,4.93
2022-09-23T04:33:36.209Z,5.70
2022-09-23T04:36:03.136Z,4.93
2022-09-23T04:38:30.008Z,4.03
2022-09-23T04:40:56.822Z,4.10
2022-09-23T04:43:23.691Z,4.85
2022-09-23T04:46:01.081Z,4.80
2022-09-23T04:48:29.020Z,4.93
2022-09-23T04:51:04.668Z,5.10
2022-09-23T04:53:32.504Z,5.15
2022-09-23T04:56:03.470Z,4.25
2022-09-23T04:58:30.188Z,4.20
2022-09-23T05:01:01.734Z,4.27
2022-09-23T05:03:34.255Z,4.32
2022-09-23T05:06:02.031Z,4.60
2022-09-23T05:08:29.648Z,4.25
2022-09-23T05:10:58.150Z,4.03
2022-09-23T05:13:25.314Z,4.30
2022-09-23T05:16:03.655Z,4.95
2022-09-23T05:18:32.078Z,4.43
2022-09-23T05:20:59.012Z,5.28
2022-09-23T05:23:25.947Z,4.53
2022-09-23T05:25:59.041Z,4.30
2022-09-23T05:28:32.781Z,3.83
2022-09-23T05:31:19.335Z,4.50
2022-09-23T05:33:49.115Z,3.92
2022-09-23T05:36:17.820Z,4.45
2022-09-23T05:38:45.080Z,4.37
2022-09-23T05:41:13.496Z,4.50
2022-09-23T05:43:41.226Z,4.20
2022-09-23T05:46:13.393Z,4.10
2022-09-23T05:48:41.508Z,4.50
2022-09-23T05:51:12.727Z,3.70
2022-09-23T05:53:40.716Z,4.30
2022-09-23T05:56:08.038Z,3.70
2022-09-23T05:58:35.517Z,4.10
2022-09-23T06:01:20.163Z,3.60
2022-09-23T06:03:48.589Z,3.73
2022-09-23T06:06:18.112Z,3.72
2022-09-23T06:08:46.562Z,3.42
2022-09-23T06:11:14.599Z,4.00
2022-09-23T06:13:41.684Z,4.20
2022-09-23T06:16:13.932Z,4.35
2022-09-23T06:18:42.469Z,3.95
2022-09-23T06:21:12.664Z,3.90
2022-09-23T06:23:41.586Z,3.75
2022-09-23T06:26:10.795Z,3.78
2022-09-23T06:28:40.410Z,3.03
2022-09-23T06:31:13.697Z,3.30
2022-09-23T06:33:43.172Z,3.20
2022-09-23T06:36:11.295Z,3.25
2022-09-23T06:38:44.729Z,3.70
2022-09-23T06:41:12.401Z,3.30
2022-09-23T06:43:39.190Z,3.25
2022-09-23T06:46:07.350Z,2.97
2022-09-23T06:48:35.386Z,2.95
2022-09-23T06:51:05.138Z,3.60
2022-09-23T06:53:32.263Z,2.97
2022-09-23T06:56:07.484Z,3.20
2022-09-23T06:58:36.138Z,3.22
2022-09-23T07:01:05.085Z,3.65
2022-09-23T07:03:31.928Z,3.17
2022-09-23T07:05:59.509Z,3.00
2022-09-23T07:08:27.960Z,3.28
2022-09-23T07:10:56.562Z,3.28
2022-09-23T07:13:23.869Z,3.40
2022-09-23T07:15:54.947Z,3.65
2022-09-23T07:18:25.491Z,3.40
2022-09-23T07:20:53.421Z,3.30
2022-09-23T07:23:20.323Z,3.10
2022-09-23T07:25:50.289Z,2.97
2022-09-23T07:28:19.049Z,3.00
2022-09-23T07:30:58.191Z,3.63
2022-09-23T07:33:32.569Z,3.90
2022-09-23T07:36:03.947Z,3.70
2022-09-23T07:38:31.073Z,3.67
2022-09-23T07:41:03.950Z,3.65
2022-09-23T07:43:32.500Z,3.50
2022-09-23T07:46:05.359Z,3.47
2022-09-23T07:48:34.649Z,3.90
2022-09-23T07:51:16.500Z,3.65
2022-09-23T07:53:47.142Z,3.80
2022-09-23T07:56:14.074Z,3.80
2022-09-23T07:58:41.047Z,3.17
2022-09-23T08:01:10.276Z,3.58
2022-09-23T08:03:38.446Z,2.97
2022-09-23T08:06:12.896Z,2.40
2022-09-23T08:08:43.434Z,3.40
2022-09-23T08:11:13.283Z,3.50
2022-09-23T08:13:40.866Z,3.42
2022-09-23T08:16:08.185Z,2.92
2022-09-23T08:18:35.324Z,3.40
2022-09-23T08:21:02.331Z,3.00
2022-09-23T08:23:33.461Z,3.47
2022-09-23T08:26:06.928Z,3.75
2022-09-23T08:28:37.238Z,5.80
2022-09-23T08:31:04.087Z,10.32
2022-09-23T08:33:31.094Z,22.83
2022-09-23T08:36:02.277Z,15.23
2022-09-23T08:38:34.308Z,11.43
2022-09-23T08:41:28.683Z,8.77
2022-09-23T08:43:59.421Z,5.10
2022-09-23T08:46:33.298Z,4.10
2022-09-23T08:49:01.314Z,5.68
2022-09-23T08:51:35.605Z,5.47
2022-09-23T08:54:02.479Z,4.97
2022-09-23T08:56:30.965Z,4.38
2022-09-23T08:59:14.819Z,4.70
2022-09-23T09:01:59.139Z,4.63
2022-09-23T09:04:45.654Z,6.20
2022-09-23T09:07:38.673Z,7.22
2022-09-23T09:10:24.656Z,7.47
2022-09-23T09:13:03.117Z,10.00
2022-09-23T09:15:29.930Z,14.02
2022-09-23T09:18:20.749Z,15.77
2022-09-23T09:20:59.976Z,11.73
2022-09-23T09:23:40.039Z,9.15
2022-09-23T09:26:13.163Z,13.13
2022-09-23T09:28:59.056Z,16.40
2022-09-23T09:31:39.943Z,15.93
2022-09-23T09:34:31.693Z,11.52
2022-09-23T09:37:12.613Z,9.93
2022-09-23T09:39:39.545Z,6.70
2022-09-23T09:42:07.507Z,8.32
2022-09-23T09:44:48.037Z,6.65
2022-09-23T09:47:40.505Z,7.00
2022-09-23T09:50:11.963Z,6.22
2022-09-23T09:52:42.990Z,6.20
2022-09-23T09:55:12.406Z,6.53
2022-09-23T09:57:44.928Z,7.30
2022-09-23T10:00:25.326Z,6.20
2022-09-23T10:03:00.984Z,5.10
2022-09-23T10:05:32.921Z,6.40
2022-09-23T10:08:21.224Z,6.82
2022-09-23T10:11:16.510Z,5.40
2022-09-23T10:14:09.350Z,4.72
2022-09-23T10:16:37.106Z,5.65
2022-09-23T10:19:14.427Z,5.77
2022-09-23T10:21:42.275Z,7.32
2022-09-23T10:24:22.485Z,7.95
2022-09-23T10:26:55.053Z,5.70
2022-09-23T10:29:30.783Z,7.15
2022-09-23T10:32:26.985Z,6.53
2022-09-23T10:35:14.917Z,4.90
2022-09-23T10:37:48.611Z,4.95
2022-09-23T10:40:38.439Z,5.47
2022-09-23T10:43:27.435Z,5.82
2022-09-23T10:46:20.481Z,4.87
2022-09-23T10:49:19.413Z,6.03
2022-09-23T10:52:07.667Z,5.85
2022-09-23T10:55:28.981Z,6.68
2022-09-23T10:58:15.033Z,5.47
2022-09-23T11:00:52.122Z,5.23
2022-09-23T11:03:51.808Z,5.70
2022-09-23T11:06:25.054Z,6.70
2022-09-23T11:09:23.155Z,6.07
2022-09-23T11:12:14.933Z,5.40
2022-09-23T11:15:10.963Z,6.50
2022-09-23T11:18:06.121Z,6.53
2022-09-23T11:20:54.531Z,6.75
2022-09-23T11:23:32.328Z,5.18
2022-09-23T11:26:17.966Z,5.40
2022-09-23T11:29:12.774Z,4.40
2022-09-23T11:32:18.293Z,5.80
2022-09-23T11:35:13.257Z,4.90
2022-09-23T11:37:46.544Z,5.88
2022-09-23T11:40:28.720Z,5.38
2022-09-23T11:42:58.870Z,5.27
2022-09-23T11:45:32.093Z,4.80
2022-09-23T11:48:05.109Z,5.70
2022-09-23T11:50:40.302Z,4.05
2022-09-23T11:53:18.255Z,5.20
2022-09-23T11:55:58.299Z,5.83
2022-09-23T11:58:33.363Z,5.57
2022-09-23T12:01:10.021Z,5.10
2022-09-23T12:04:10.528Z,5.10
2022-09-23T12:06:45.087Z,5.57
2022-09-23T12:09:41.064Z,5.20
2022-09-23T12:12:17.130Z,4.78
2022-09-23T12:14:59.071Z,4.80
2022-09-23T12:17:42.900Z,4.10
2022-09-23T12:20:28.437Z,4.03
2022-09-23T12:23:06.915Z,4.23
2022-09-23T12:25:52.472Z,4.83
2022-09-23T12:28:27.050Z,4.40
2022-09-23T12:30:58.591Z,3.83
2022-09-23T12:33:28.388Z,4.20
2022-09-23T12:36:12.213Z,4.13
2022-09-23T12:38:48.595Z,3.65
2022-09-23T12:41:24.030Z,4.60
2022-09-23T12:43:56.232Z,3.35
2022-09-23T12:46:26.071Z,4.30
2022-09-23T12:49:02.114Z,3.77
2022-09-23T12:51:34.775Z,4.50
2022-09-23T12:54:04.703Z,5.10
2022-09-23T12:56:31.355Z,4.00
2022-09-23T12:59:25.225Z,3.90
2022-09-23T13:01:52.490Z,4.13
2022-09-23T13:04:53.698Z,3.33
2022-09-23T13:07:29.964Z,4.25
2022-09-23T13:10:12.447Z,4.00
2022-09-23T13:12:42.243Z,3.80
2022-09-23T13:15:36.270Z,3.35
2022-09-23T13:18:21.130Z,3.10
2022-09-23T13:20:49.465Z,3.70
2022-09-23T13:23:20.097Z,3.33
2022-09-23T13:25:48.078Z,3.20
2022-09-23T13:28:39.383Z,3.17
2022-09-23T13:31:13.704Z,3.50
2022-09-23T13:33:51.521Z,2.70
2022-09-23T13:36:24.520Z,3.53
2022-09-23T13:38:51.276Z,3.60
2022-09-23T13:41:23.821Z,3.53
2022-09-23T13:43:54.138Z,3.30
2022-09-23T13:46:46.710Z,2.92
2022-09-23T13:49:24.386Z,2.65
2022-09-23T13:51:54.096Z,3.40
2022-09-23T13:54:49.514Z,3.30
2022-09-23T13:57:36.902Z,2.67
2022-09-23T14:00:21.162Z,3.08
2022-09-23T14:02:47.861Z,3.55
2022-09-23T14:05:23.501Z,2.88
2022-09-23T14:07:51.949Z,2.50
2022-09-23T14:10:22.243Z,2.60
2022-09-23T14:12:51.139Z,2.65
2022-09-23T14:15:20.396Z,2.83
2022-09-23T14:17:50.097Z,3.00
2022-09-23T14:20:19.857Z,3.53
2022-09-23T14:22:46.563Z,2.93
2022-09-23T14:25:15.604Z,2.70
2022-09-23T14:27:43.908Z,2.80
2022-09-23T14:30:15.493Z,3.20
2022-09-23T14:32:42.487Z,4.10
2022-09-23T14:35:18.623Z,3.17
2022-09-23T14:38:07.595Z,2.83
2022-09-23T14:40:49.787Z,2.83
2022-09-23T14:43:29.028Z,2.80
2022-09-23T14:45:58.446Z,2.97
2022-09-23T14:48:28.192Z,2.87
2022-09-23T14:50:57.153Z,2.50
2022-09-23T14:53:43.691Z,2.80
2022-09-23T14:56:20.555Z,3.25
2022-09-23T14:58:55.138Z,4.22
2022-09-23T15:01:26.400Z,3.80
2022-09-23T15:03:54.331Z,3.60
2022-09-23T15:06:22.976Z,3.50
2022-09-23T15:08:51.719Z,3.00
2022-09-23T15:11:19.068Z,3.00
2022-09-23T15:13:49.690Z,3.60
2022-09-23T15:16:26.790Z,3.95
2022-09-23T15:18:59.824Z,4.10
2022-09-23T15:21:41.980Z,3.35
2022-09-23T15:24:45.423Z,2.67
2022-09-23T15:27:29.442Z,3.10
2022-09-23T15:30:11.265Z,2.85
2022-09-23T15:32:42.316Z,2.70
2022-09-23T15:35:18.672Z,2.70
2022-09-23T15:37:48.380Z,2.70
2022-09-23T15:40:26.176Z,4.20
2022-09-23T15:42:57.784Z,3.72
2022-09-23T15:45:35.779Z,3.47
2022-09-23T15:48:08.207Z,3.33
2022-09-23T15:50:36.273Z,4.75
2022-09-23T15:53:04.273Z,4.43
2022-09-23T15:55:31.964Z,4.55
2022-09-23T15:57:58.934Z,4.13
2022-09-23T16:00:25.955Z,4.88
2022-09-23T16:02:54.013Z,4.57
2022-09-23T16:05:26.548Z,3.40
2022-09-23T16:07:53.340Z,4.28
2022-09-23T16:10:21.775Z,3.90
2022-09-23T16:12:49.560Z,4.38
2022-09-23T16:15:19.177Z,5.22
2022-09-23T16:17:45.922Z,4.07
2022-09-23T16:20:17.973Z,3.53
2022-09-23T16:22:54.046Z,4.30
2022-09-23T16:25:23.479Z,4.15
2022-09-23T16:27:50.240Z,3.75
2022-09-23T16:30:17.324Z,4.17
2022-09-23T16:32:44.292Z,4.20
2022-09-23T16:35:11.189Z,3.53
2022-09-23T16:37:37.997Z,4.32
2022-09-23T16:40:05.850Z,3.70
2022-09-23T16:42:32.818Z,4.07
2022-09-23T16:44:59.475Z,3.92
2022-09-23T16:47:26.292Z,3.17
2022-09-23T16:49:53.145Z,3.00
2022-09-23T16:52:19.782Z,3.05
2022-09-23T16:54:48.004Z,2.67
2022-09-23T16:57:14.723Z,2.65
2022-09-23T16:59:59.914Z,3.17
2022-09-23T17:02:45.655Z,3.00
2022-09-23T17:05:18.387Z,2.95
2022-09-23T17:07:45.284Z,3.03
2022-09-23T17:10:12.063Z,2.83
2022-09-23T17:12:38.723Z,2.67
2022-09-23T17:15:07.443Z,2.67
2022-09-23T17:17:37.777Z,2.92
2022-09-23T17:20:06.063Z,3.17
2022-09-23T17:22:33.778Z,3.28
2022-09-23T17:25:03.804Z,2.83
2022-09-23T17:27:31.817Z,3.60
2022-09-23T17:29:59.100Z,3.55
2022-09-23T17:32:26.653Z,3.10
2022-09-23T17:34:53.520Z,3.20
2022-09-23T17:37:20.324Z,3.17
2022-09-23T17:39:47.019Z,3.20
2022-09-23T17:42:15.229Z,3.33
2022-09-23T17:44:42.097Z,3.40
2022-09-23T17:47:08.732Z,3.10
2022-09-23T17:49:35.472Z,2.97
2022-09-23T17:52:05.336Z,3.50
2022-09-23T17:54:32.720Z,3.40
2022-09-23T17:56:59.919Z,3.50
2022-09-23T17:59:26.797Z,4.75
2022-09-23T18:01:54.123Z,3.80
2022-09-23T18:04:21.265Z,6.05
2022-09-23T18:06:48.159Z,6.38
2022-09-23T18:09:14.840Z,7.20
2022-09-23T18:11:44.905Z,6.43
2022-09-23T18:14:18.608Z,5.95
2022-09-23T18:16:48.223Z,6.53
2022-09-23T18:19:21.315Z,5.70
2022-09-23T18:21:50.745Z,5.27
2022-09-23T18:24:31.846Z,4.72
2022-09-23T18:26:59.883Z,4.70
2022-09-23T18:29:27.394Z,4.35
2022-09-23T18:31:54.353Z,4.13
2022-09-23T18:34:21.854Z,4.17
2022-09-23T18:36:48.749Z,4.10
2022-09-23T18:39:15.440Z,4.40
2022-09-23T18:41:42.408Z,6.88
2022-09-23T18:44:09.682Z,9.18
2022-09-23T18:46:36.873Z,9.00
2022-09-23T18:49:22.408Z,7.47
2022-09-23T18:51:57.091Z,7.25
2022-09-23T18:54:28.325Z,5.88
2022-09-23T18:56:56.044Z,6.35
2022-09-23T18:59:27.782Z,7.13
2022-09-23T19:01:56.517Z,6.35
2022-09-23T19:04:25.144Z,5.63
2022-09-23T19:06:52.078Z,4.80
2022-09-23T19:09:19.422Z,5.05
2022-09-23T19:11:46.597Z,4.77
2022-09-23T19:14:13.685Z,4.70
2022-09-23T19:16:40.839Z,5.53
2022-09-23T19:19:08.580Z,5.90
2022-09-23T19:21:36.018Z,4.55
2022-09-23T19:24:06.004Z,4.60
2022-09-23T19:26:37.761Z,4.30
2022-09-23T19:29:05.990Z,4.90
2022-09-23T19:31:41.106Z,5.20
2022-09-23T19:34:13.007Z,6.45
2022-09-23T19:36:42.575Z,6.47
2022-09-23T19:39:22.861Z,5.30
2022-09-23T19:41:51.028Z,6.68
2022-09-23T19:44:19.958Z,6.72
2022-09-23T19:46:53.498Z,6.32
2022-09-23T19:49:24.399Z,7.60
2022-09-23T19:51:51.580Z,6.90
2022-09-23T19:54:20.513Z,5.60
2022-09-23T19:56:48.634Z,5.72
2022-09-23T19:59:18.775Z,5.30
2022-09-23T20:01:47.038Z,7.00
2022-09-23T20:04:15.587Z,8.38
2022-09-23T20:06:42.808Z,7.65
2022-09-23T20:09:09.973Z,7.72
2022-09-23T20:11:36.903Z,7.43
2022-09-23T20:14:06.133Z,6.43
2022-09-23T20:16:37.182Z,4.75
2022-09-23T20:19:05.801Z,5.80
2022-09-23T20:21:33.764Z,6.13
2022-09-23T20:24:01.538Z,7.20
2022-09-23T20:26:46.935Z,6.30
2022-09-23T20:29:14.245Z,8.90
2022-09-23T20:31:41.523Z,11.40
2022-09-23T20:34:10.737Z,11.13
2022-09-23T20:36:39.461Z,8.93
2022-09-23T20:39:06.850Z,8.80
2022-09-23T20:41:38.095Z,7.32
2022-09-23T20:44:15.948Z,7.80
2022-09-23T20:46:48.348Z,8.98
2022-09-23T20:49:17.385Z,7.90
2022-09-23T20:51:44.704Z,7.17
2022-09-23T20:54:12.211Z,6.53
2022-09-23T20:56:39.108Z,10.70
2022-09-23T20:59:06.120Z,9.25
2022-09-23T21:01:36.907Z,9.10
2022-09-23T21:04:05.978Z,7.90
2022-09-23T21:06:36.812Z,7.00
2022-09-23T21:09:07.220Z,8.80
2022-09-23T21:11:34.696Z,8.00
2022-09-23T21:14:02.118Z,9.10
2022-09-23T21:16:29.238Z,8.80
2022-09-23T21:18:58.194Z,8.90
2022-09-23T21:21:25.040Z,9.00
2022-09-23T21:23:52.483Z,9.23
2022-09-23T21:26:24.600Z,10.00
2022-09-23T21:28:53.443Z,11.97
2022-09-23T21:31:25.768Z,9.82
2022-09-23T21:33:53.866Z,8.32
2022-09-23T21:36:21.636Z,11.75
2022-09-23T21:38:48.325Z,10.65
2022-09-23T21:41:15.558Z,10.67
2022-09-23T21:43:42.831Z,13.15
2022-09-23T21:46:11.720Z,14.43
2022-09-23T21:48:43.012Z,12.70
2022-09-23T21:51:12.817Z,10.57
2022-09-23T21:53:40.902Z,6.67
2022-09-23T21:56:20.698Z,6.93
2022-09-23T21:58:49.020Z,6.10
2022-09-23T22:01:18.384Z,6.07
2022-09-23T22:03:50.618Z,5.55
2022-09-23T22:06:21.516Z,4.87
2022-09-23T22:08:50.609Z,4.85
2022-09-23T22:11:39.100Z,4.55
2022-09-23T22:14:07.658Z,4.80
2022-09-23T22:16:34.734Z,4.78
2022-09-23T22:19:01.760Z,5.00
2022-09-23T22:21:30.206Z,7.82
2022-09-23T22:24:01.060Z,9.07
2022-09-23T22:26:29.375Z,8.70
2022-09-23T22:29:14.959Z,6.53
2022-09-23T22:32:00.185Z,5.50
2022-09-23T22:34:48.652Z,6.38
2022-09-23T22:37:17.847Z,6.22
2022-09-23T22:39:45.384Z,5.60
2022-09-23T22:42:15.920Z,5.35
2022-09-23T22:44:42.926Z,5.43
2022-09-23T22:47:10.290Z,6.30
2022-09-23T22:49:37.222Z,5.13
2022-09-23T22:52:07.869Z,7.00
2022-09-23T22:54:35.734Z,7.82
2022-09-23T22:57:07.107Z,8.87
2022-09-23T22:59:34.836Z,8.52
2022-09-23T23:02:05.181Z,8.85
2022-09-23T23:04:32.192Z,8.23
2022-09-23T23:06:59.049Z,8.32
2022-09-23T23:09:26.187Z,8.30
2022-09-23T23:11:53.303Z,6.38
2022-09-23T23:14:20.193Z,6.10
2022-09-23T23:16:47.269Z,5.82
2022-09-23T23:19:17.456Z,5.10
2022-09-23T23:21:45.208Z,5.80
2022-09-23T23:24:18.425Z,6.35
2022-09-23T23:26:45.713Z,5.22
2022-09-23T23:29:14.708Z,6.35
2022-09-23T23:31:41.977Z,6.45
2022-09-23T23:34:13.342Z,7.40
2022-09-23T23:36:41.492Z,8.57
2022-09-23T23:39:08.717Z,9.07
2022-09-23T23:41:36.300Z,9.40
2022-09-23T23:44:03.025Z,8.13
2022-09-23T23:46:31.352Z,9.40
2022-09-23T23:48:59.350Z,8.60
2022-09-23T23:51:27.437Z,7.47
2022-09-23T23:53:55.579Z,7.57
2022-09-23T23:56:24.257Z,9.05
2022-09-23T23:58:59.445Z,8.83
